sensor_id;sensor_type;location;lat;lon;timestamp;pressure;altitude;pressure_sealevel;temperature;humidity
48517;BME280;34310;51.904;4.256;2022-11-18T00:01:08;99448.63;;;15.14;70.56
48517;BME280;34310;51.904;4.256;2022-11-18T00:03:37;99454.63;;;15.12;70.66
48517;BME280;34310;51.904;4.256;2022-11-18T00:06:05;99454.66;;;15.13;70.81
48517;BME280;34310;51.904;4.256;2022-11-18T00:08:33;99454.66;;;15.13;70.78
48517;BME280;34310;51.904;4.256;2022-11-18T00:11:24;99457.22;;;15.12;70.67
48517;BME280;34310;51.904;4.256;2022-11-18T00:14:24;99463.25;;;15.11;70.59
48517;BME280;34310;51.904;4.256;2022-11-18T00:17:01;99462.38;;;15.10;70.77
48517;BME280;34310;51.904;4.256;2022-11-18T00:19:33;99459.69;;;15.07;70.69
48517;BME280;34310;51.904;4.256;2022-11-18T00:22:01;99468.41;;;15.09;70.67
48517;BME280;34310;51.904;4.256;2022-11-18T00:24:28;99467.53;;;15.09;70.63
48517;BME280;34310;51.904;4.256;2022-11-18T00:26:56;99474.44;;;15.08;70.84
48517;BME280;34310;51.904;4.256;2022-11-18T00:29:24;99480.44;;;15.06;70.61
48517;BME280;34310;51.904;4.256;2022-11-18T00:31:56;99473.47;;;15.05;70.67
48517;BME280;34310;51.904;4.256;2022-11-18T00:34:25;99485.59;;;15.04;70.77
48517;BME280;34310;51.904;4.256;2022-11-18T00:36:52;99482.97;;;15.04;70.92
48517;BME280;34310;51.904;4.256;2022-11-18T00:39:20;99488.97;;;15.03;70.70
48517;BME280;34310;51.904;4.256;2022-11-18T00:41:48;99499.34;;;15.02;70.67
48517;BME280;34310;51.904;4.256;2022-11-18T00:44:34;99499.28;;;15.00;70.71
48517;BME280;34310;51.904;4.256;2022-11-18T00:47:03;99501.06;;;15.01;70.74
48517;BME280;34310;51.904;4.256;2022-11-18T00:49:30;99506.19;;;15.00;70.92
48517;BME280;34310;51.904;4.256;2022-11-18T00:51:57;99502.78;;;15.01;70.91
48517;BME280;34310;51.904;4.256;2022-11-18T00:54:24;99508.81;;;15.00;70.78
48517;BME280;34310;51.904;4.256;2022-11-18T00:56:52;99507.03;;;14.99;70.78
48517;BME280;34310;51.904;4.256;2022-11-18T00:59:19;99516.50;;;14.97;71.00
48517;BME280;34310;51.904;4.256;2022-11-18T01:01:47;99522.63;;;14.99;70.84
48517;BME280;34310;51.904;4.256;2022-11-18T01:04:15;99517.38;;;14.97;70.82
48517;BME280;34310;51.904;4.256;2022-11-18T01:06:43;99517.38;;;14.97;70.86
48517;BME280;34310;51.904;4.256;2022-11-18T01:09:10;99521.69;;;14.97;70.82
48517;BME280;34310;51.904;4.256;2022-11-18T01:11:37;99530.25;;;14.93;70.98
48517;BME280;34310;51.904;4.256;2022-11-18T01:14:24;99524.22;;;14.94;70.79
48517;BME280;34310;51.904;4.256;2022-11-18T01:16:55;99532.84;;;14.93;70.99
48517;BME280;34310;51.904;4.256;2022-11-18T01:19:23;99538.09;;;14.94;71.02
48517;BME280;34310;51.904;4.256;2022-11-18T01:21:51;99540.63;;;14.93;70.96
48517;BME280;34310;51.904;4.256;2022-11-18T01:24:18;99548.38;;;14.91;70.87
48517;BME280;34310;51.904;4.256;2022-11-18T01:26:45;99552.69;;;14.91;70.78
48517;BME280;34310;51.904;4.256;2022-11-18T01:29:13;99552.66;;;14.89;70.90
48517;BME280;34310;51.904;4.256;2022-11-18T01:31:40;99565.66;;;14.89;71.06
48517;BME280;34310;51.904;4.256;2022-11-18T01:34:28;99571.72;;;14.90;70.92
48517;BME280;34310;51.904;4.256;2022-11-18T01:36:55;99572.56;;;14.88;70.98
48517;BME280;34310;51.904;4.256;2022-11-18T01:39:24;99575.09;;;14.87;70.83
48517;BME280;34310;51.904;4.256;2022-11-18T01:41:52;99572.50;;;14.87;71.02
48517;BME280;34310;51.904;4.256;2022-11-18T01:47:44;99585.56;;;14.88;70.91
48517;BME280;34310;51.904;4.256;2022-11-18T01:50:15;99588.88;;;14.84;70.97
48517;BME280;34310;51.904;4.256;2022-11-18T01:52:46;99589.72;;;14.83;71.10
48517;BME280;34310;51.904;4.256;2022-11-18T01:55:24;99592.31;;;14.83;71.14
48517;BME280;34310;51.904;4.256;2022-11-18T01:58:00;99588.78;;;14.81;71.00
48517;BME280;34310;51.904;4.256;2022-11-18T02:00:29;99600.09;;;14.83;70.92
48517;BME280;34310;51.904;4.256;2022-11-18T02:02:56;99592.31;;;14.83;71.02
48517;BME280;34310;51.904;4.256;2022-11-18T02:05:25;99593.97;;;14.81;71.08
48517;BME280;34310;51.904;4.256;2022-11-18T02:07:54;99599.19;;;14.81;71.06
48517;BME280;34310;51.904;4.256;2022-11-18T02:10:23;99608.69;;;14.81;70.98
48517;BME280;34310;51.904;4.256;2022-11-18T02:12:52;99609.56;;;14.81;71.19
48517;BME280;34310;51.904;4.256;2022-11-18T02:15:29;99603.50;;;14.81;71.25
48517;BME280;34310;51.904;4.256;2022-11-18T02:18:09;99610.41;;;14.80;71.12
48517;BME280;34310;51.904;4.256;2022-11-18T02:20:41;99615.53;;;14.79;71.24
48517;BME280;34310;51.904;4.256;2022-11-18T02:23:39;99620.75;;;14.79;71.28
48517;BME280;34310;51.904;4.256;2022-11-18T02:29:13;99625.94;;;14.79;71.25
48517;BME280;34310;51.904;4.256;2022-11-18T02:32:03;99627.59;;;14.77;71.21
48517;BME280;34310;51.904;4.256;2022-11-18T02:34:56;99633.69;;;14.77;71.38
48517;BME280;34310;51.904;4.256;2022-11-18T02:40:43;99631.03;;;14.76;71.39
48517;BME280;34310;51.904;4.256;2022-11-18T02:43:17;99628.34;;;14.74;71.15
48517;BME280;34310;51.904;4.256;2022-11-18T02:45:50;99638.75;;;14.74;71.41
48517;BME280;34310;51.904;4.256;2022-11-18T02:48:19;99643.94;;;14.74;71.14
48517;BME280;34310;51.904;4.256;2022-11-18T02:50:49;99646.53;;;14.74;71.31
48517;BME280;34310;51.904;4.256;2022-11-18T02:53:19;99643.94;;;14.74;71.24
48517;BME280;34310;51.904;4.256;2022-11-18T02:55:48;99650.78;;;14.72;71.35
48517;BME280;34310;51.904;4.256;2022-11-18T02:58:18;99650.84;;;14.74;71.51
48517;BME280;34310;51.904;4.256;2022-11-18T03:00:57;99648.19;;;14.72;71.31
48517;BME280;34310;51.904;4.256;2022-11-18T03:03:33;99650.06;;;14.75;71.44
48517;BME280;34310;51.904;4.256;2022-11-18T03:09:19;99652.56;;;14.73;71.29
48517;BME280;34310;51.904;4.256;2022-11-18T03:15:21;99662.06;;;14.73;71.41
48517;BME280;34310;51.904;4.256;2022-11-18T03:21:06;99671.53;;;14.71;71.47
48517;BME280;34310;51.904;4.256;2022-11-18T03:26:26;99666.28;;;14.69;71.32
48517;BME280;34310;51.904;4.256;2022-11-18T03:29:03;99669.81;;;14.71;71.50
48517;BME280;34310;51.904;4.256;2022-11-18T03:31:48;99669.75;;;14.70;71.30
48517;BME280;34310;51.904;4.256;2022-11-18T03:34:29;99679.31;;;14.71;71.45
48517;BME280;34310;51.904;4.256;2022-11-18T03:37:02;99679.22;;;14.68;71.50
48517;BME280;34310;51.904;4.256;2022-11-18T03:39:41;99680.09;;;14.68;71.55
48517;BME280;34310;51.904;4.256;2022-11-18T03:42:24;99679.22;;;14.68;71.49
48517;BME280;34310;51.904;4.256;2022-11-18T03:45:04;99686.13;;;14.67;71.34
48517;BME280;34310;51.904;4.256;2022-11-18T03:47:43;99691.31;;;14.67;71.63
48517;BME280;34310;51.904;4.256;2022-11-18T03:50:16;99693.91;;;14.67;71.46
48517;BME280;34310;51.904;4.256;2022-11-18T03:52:48;99692.16;;;14.66;71.59
48517;BME280;34310;51.904;4.256;2022-11-18T03:55:20;99696.47;;;14.66;71.41
48517;BME280;34310;51.904;4.256;2022-11-18T03:57:59;99698.22;;;14.67;71.54
48517;BME280;34310;51.904;4.256;2022-11-18T04:00:33;99702.50;;;14.65;71.45
48517;BME280;34310;51.904;4.256;2022-11-18T04:03:03;99703.38;;;14.65;71.64
48517;BME280;34310;51.904;4.256;2022-11-18T04:05:34;99703.38;;;14.65;71.46
48517;BME280;34310;51.904;4.256;2022-11-18T04:08:10;99704.22;;;14.64;71.44
48517;BME280;34310;51.904;4.256;2022-11-18T04:10:49;99715.47;;;14.65;71.52
48517;BME280;34310;51.904;4.256;2022-11-18T04:13:38;99712.78;;;14.62;71.63
48517;BME280;34310;51.904;4.256;2022-11-18T04:16:06;99726.75;;;14.65;71.42
48517;BME280;34310;51.904;4.256;2022-11-18T04:18:35;99722.34;;;14.63;71.63
48517;BME280;34310;51.904;4.256;2022-11-18T04:21:03;99731.06;;;14.65;71.52
48517;BME280;34310;51.904;4.256;2022-11-18T04:23:30;99728.34;;;14.62;71.63
48517;BME280;34310;51.904;4.256;2022-11-18T04:25:57;99733.56;;;14.62;71.47
48517;BME280;34310;51.904;4.256;2022-11-18T04:28:25;99739.63;;;14.62;71.42
48517;BME280;34310;51.904;4.256;2022-11-18T04:30:52;99737.88;;;14.61;71.49
48517;BME280;34310;51.904;4.256;2022-11-18T04:33:19;99738.69;;;14.60;71.49
48517;BME280;34310;51.904;4.256;2022-11-18T04:35:46;99738.69;;;14.60;71.53
48517;BME280;34310;51.904;4.256;2022-11-18T04:38:14;99740.34;;;14.58;71.61
48517;BME280;34310;51.904;4.256;2022-11-18T04:40:47;99741.28;;;14.60;71.68
48517;BME280;34310;51.904;4.256;2022-11-18T04:43:15;99749.09;;;14.60;71.51
48517;BME280;34310;51.904;4.256;2022-11-18T04:45:42;99752.50;;;14.59;71.46
48517;BME280;34310;51.904;4.256;2022-11-18T04:48:09;99756.88;;;14.60;71.58
48517;BME280;34310;51.904;4.256;2022-11-18T04:50:36;99765.50;;;14.59;71.55
48517;BME280;34310;51.904;4.256;2022-11-18T04:53:04;99760.19;;;14.56;71.62
48517;BME280;34310;51.904;4.256;2022-11-18T04:55:34;99767.09;;;14.55;71.64
48517;BME280;34310;51.904;4.256;2022-11-18T04:58:02;99776.72;;;14.58;71.67
48517;BME280;34310;51.904;4.256;2022-11-18T05:00:29;99774.94;;;14.57;71.70
48517;BME280;34310;51.904;4.256;2022-11-18T05:02:57;99772.34;;;14.57;71.65
48517;BME280;34310;51.904;4.256;2022-11-18T05:05:24;99777.50;;;14.55;71.67
48517;BME280;34310;51.904;4.256;2022-11-18T05:07:51;99780.09;;;14.55;71.52
48517;BME280;34310;51.904;4.256;2022-11-18T05:10:18;99777.56;;;14.57;71.61
48517;BME280;34310;51.904;4.256;2022-11-18T05:12:46;99782.69;;;14.55;71.61
48517;BME280;34310;51.904;4.256;2022-11-18T05:15:20;99782.69;;;14.55;71.82
48517;BME280;34310;51.904;4.256;2022-11-18T05:17:47;99796.56;;;14.56;71.69
48517;BME280;34310;51.904;4.256;2022-11-18T05:20:15;99789.59;;;14.55;71.80
48517;BME280;34310;51.904;4.256;2022-11-18T05:22:42;99801.75;;;14.56;71.77
48517;BME280;34310;51.904;4.256;2022-11-18T05:25:09;99795.69;;;14.55;71.53
48517;BME280;34310;51.904;4.256;2022-11-18T05:27:37;99798.22;;;14.54;71.78
48517;BME280;34310;51.904;4.256;2022-11-18T05:30:05;99789.59;;;14.55;71.61
48517;BME280;34310;51.904;4.256;2022-11-18T05:32:32;99801.66;;;14.53;71.70
48517;BME280;34310;51.904;4.256;2022-11-18T05:34:59;99801.59;;;14.51;71.84
48517;BME280;34310;51.904;4.256;2022-11-18T05:37:27;99799.88;;;14.52;72.08
48517;BME280;34310;51.904;4.256;2022-11-18T05:39:54;99808.72;;;14.57;71.73
48517;BME280;34310;51.904;4.256;2022-11-18T05:42:21;99807.94;;;14.60;71.71
48517;BME280;34310;51.904;4.256;2022-11-18T05:45:07;99825.34;;;14.62;71.81
48517;BME280;34310;51.904;4.256;2022-11-18T05:47:34;99822.72;;;14.61;71.83
48517;BME280;34310;51.904;4.256;2022-11-18T05:50:21;99825.25;;;14.59;71.71
48517;BME280;34310;51.904;4.256;2022-11-18T05:52:49;99827.91;;;14.61;71.87
48517;BME280;34310;51.904;4.256;2022-11-18T05:55:17;99828.72;;;14.60;71.89
48517;BME280;34310;51.904;4.256;2022-11-18T05:57:45;99831.28;;;14.58;71.93
48517;BME280;34310;51.904;4.256;2022-11-18T06:00:13;99832.97;;;14.57;71.89
48517;BME280;34310;51.904;4.256;2022-11-18T06:02:42;99835.63;;;14.59;71.89
48517;BME280;34310;51.904;4.256;2022-11-18T06:05:10;99838.06;;;14.54;71.92
48517;BME280;34310;51.904;4.256;2022-11-18T06:07:40;99841.53;;;14.55;72.10
48517;BME280;34310;51.904;4.256;2022-11-18T06:10:12;99842.38;;;14.54;72.13
48517;BME280;34310;51.904;4.256;2022-11-18T06:12:46;99844.91;;;14.52;72.09
48517;BME280;34310;51.904;4.256;2022-11-18T06:15:21;99848.28;;;14.50;72.11
48517;BME280;34310;51.904;4.256;2022-11-18T06:18:21;99846.50;;;14.49;72.12
48517;BME280;34310;51.904;4.256;2022-11-18T06:20:54;99862.16;;;14.50;72.20
48517;BME280;34310;51.904;4.256;2022-11-18T06:23:22;99862.09;;;14.49;72.18
48517;BME280;34310;51.904;4.256;2022-11-18T06:25:50;99863.81;;;14.48;72.22
48517;BME280;34310;51.904;4.256;2022-11-18T06:28:18;99872.00;;;14.59;72.34
48517;BME280;34310;51.904;4.256;2022-11-18T06:30:46;99869.03;;;14.72;72.00
48517;BME280;34310;51.904;4.256;2022-11-18T06:33:13;99883.19;;;14.79;71.86
48517;BME280;34310;51.904;4.256;2022-11-18T06:35:42;99874.72;;;14.84;71.86
48517;BME280;34310;51.904;4.256;2022-11-18T06:38:09;99891.31;;;14.88;71.56
48517;BME280;34310;51.904;4.256;2022-11-18T06:40:37;99885.34;;;14.91;71.52
48517;BME280;34310;51.904;4.256;2022-11-18T06:43:05;99889.88;;;14.96;71.28
48517;BME280;34310;51.904;4.256;2022-11-18T06:45:51;99901.78;;;14.90;71.35
48517;BME280;34310;51.904;4.256;2022-11-18T06:48:37;99907.56;;;14.82;71.35
48517;BME280;34310;51.904;4.256;2022-11-18T06:51:06;99915.25;;;14.79;71.43
48517;BME280;34310;51.904;4.256;2022-11-18T06:53:34;99906.44;;;14.76;71.68
48517;BME280;34310;51.904;4.256;2022-11-18T06:56:06;99915.97;;;14.75;71.50
48517;BME280;34310;51.904;4.256;2022-11-18T06:58:34;99917.53;;;14.72;71.71
48517;BME280;34310;51.904;4.256;2022-11-18T07:01:16;99926.97;;;14.70;71.56
48517;BME280;34310;51.904;4.256;2022-11-18T07:03:45;99930.41;;;14.69;71.48
48517;BME280;34310;51.904;4.256;2022-11-18T07:06:16;99939.97;;;14.70;71.68
48517;BME280;34310;51.904;4.256;2022-11-18T07:08:44;99938.13;;;14.67;71.71
48517;BME280;34310;51.904;4.256;2022-11-18T07:11:13;99932.88;;;14.66;71.69
48517;BME280;34310;51.904;4.256;2022-11-18T07:13:41;99945.88;;;14.66;71.88
48517;BME280;34310;51.904;4.256;2022-11-18T07:16:11;99950.16;;;14.65;71.99
48517;BME280;34310;51.904;4.256;2022-11-18T07:18:40;99945.81;;;14.64;71.98
48517;BME280;34310;51.904;4.256;2022-11-18T07:21:18;99956.13;;;14.63;71.93
48517;BME280;34310;51.904;4.256;2022-11-18T07:23:46;99949.22;;;14.63;72.07
48517;BME280;34310;51.904;4.256;2022-11-18T07:26:13;99963.09;;;14.64;71.92
48517;BME280;34310;51.904;4.256;2022-11-18T07:28:41;99957.84;;;14.62;72.01
48517;BME280;34310;51.904;4.256;2022-11-18T07:31:13;99964.75;;;14.62;72.03
48517;BME280;34310;51.904;4.256;2022-11-18T07:33:42;99963.88;;;14.61;71.98
48517;BME280;34310;51.904;4.256;2022-11-18T07:36:12;99969.94;;;14.62;72.02
48517;BME280;34310;51.904;4.256;2022-11-18T07:38:40;99972.53;;;14.62;72.05
48517;BME280;34310;51.904;4.256;2022-11-18T07:41:13;99971.66;;;14.61;72.08
48517;BME280;34310;51.904;4.256;2022-11-18T07:43:41;99973.44;;;14.62;72.22
48517;BME280;34310;51.904;4.256;2022-11-18T07:48:44;99986.13;;;14.75;72.15
48517;BME280;34310;51.904;4.256;2022-11-18T07:51:13;99978.50;;;14.80;72.33
48517;BME280;34310;51.904;4.256;2022-11-18T07:53:41;99990.72;;;14.82;72.03
48517;BME280;34310;51.904;4.256;2022-11-18T07:56:09;99998.63;;;14.85;72.28
48517;BME280;34310;51.904;4.256;2022-11-18T07:58:37;99999.53;;;14.86;72.09
48517;BME280;34310;51.904;4.256;2022-11-18T08:03:39;100010.81;;;14.86;71.86
48517;BME280;34310;51.904;4.256;2022-11-18T08:06:08;100016.84;;;14.85;71.90
48517;BME280;34310;51.904;4.256;2022-11-18T08:08:36;100020.25;;;14.84;72.02
48517;BME280;34310;51.904;4.256;2022-11-18T08:11:06;100023.69;;;14.83;71.87
48517;BME280;34310;51.904;4.256;2022-11-18T08:13:34;100027.03;;;14.81;71.82
48517;BME280;34310;51.904;4.256;2022-11-18T08:16:06;100035.72;;;14.81;71.78
48517;BME280;34310;51.904;4.256;2022-11-18T08:18:38;100040.88;;;14.80;71.84
48517;BME280;34310;51.904;4.256;2022-11-18T08:21:05;100035.66;;;14.80;71.82
48517;BME280;34310;51.904;4.256;2022-11-18T08:23:32;100046.88;;;14.79;72.00
48517;BME280;34310;51.904;4.256;2022-11-18T08:26:10;100050.38;;;14.79;71.82
48517;BME280;34310;51.904;4.256;2022-11-18T08:28:43;100058.16;;;14.79;72.10
48517;BME280;34310;51.904;4.256;2022-11-18T08:31:12;100056.41;;;14.78;71.84
48517;BME280;34310;51.904;4.256;2022-11-18T08:33:40;100061.59;;;14.78;71.84
48517;BME280;34310;51.904;4.256;2022-11-18T08:36:09;100065.00;;;14.77;71.85
48517;BME280;34310;51.904;4.256;2022-11-18T08:38:38;100071.09;;;14.78;71.92
48517;BME280;34310;51.904;4.256;2022-11-18T08:41:06;100064.19;;;14.78;71.77
48517;BME280;34310;51.904;4.256;2022-11-18T08:43:36;100070.22;;;14.77;71.92
48517;BME280;34310;51.904;4.256;2022-11-18T08:46:03;100065.00;;;14.77;71.78
48517;BME280;34310;51.904;4.256;2022-11-18T08:48:31;100079.72;;;14.77;71.83
48517;BME280;34310;51.904;4.256;2022-11-18T08:50:59;100082.31;;;14.77;71.83
48517;BME280;34310;51.904;4.256;2022-11-18T08:53:26;100086.63;;;14.76;71.94
48517;BME280;34310;51.904;4.256;2022-11-18T08:55:58;100090.13;;;14.77;71.96
48517;BME280;34310;51.904;4.256;2022-11-18T08:58:26;100083.16;;;14.76;71.87
48517;BME280;34310;51.904;4.256;2022-11-18T09:00:54;100093.59;;;14.77;71.91
48517;BME280;34310;51.904;4.256;2022-11-18T09:03:22;100086.63;;;14.76;71.90
48517;BME280;34310;51.904;4.256;2022-11-18T09:05:50;100097.03;;;14.76;71.76
48517;BME280;34310;51.904;4.256;2022-11-18T09:08:17;100097.84;;;14.75;71.82
48517;BME280;34310;51.904;4.256;2022-11-18T09:10:46;100094.44;;;14.76;71.87
48517;BME280;34310;51.904;4.256;2022-11-18T09:13:13;100094.38;;;14.75;71.87
48517;BME280;34310;51.904;4.256;2022-11-18T09:16:01;100099.56;;;14.75;71.90
48517;BME280;34310;51.904;4.256;2022-11-18T09:18:28;100100.44;;;14.75;71.77
48517;BME280;34310;51.904;4.256;2022-11-18T09:21:06;100101.41;;;14.77;71.97
48517;BME280;34310;51.904;4.256;2022-11-18T09:23:35;100099.81;;;14.81;71.89
48517;BME280;34310;51.904;4.256;2022-11-18T09:26:06;100098.22;;;14.84;72.11
48517;BME280;34310;51.904;4.256;2022-11-18T09:28:34;100098.34;;;14.87;72.25
48517;BME280;34310;51.904;4.256;2022-11-18T09:31:13;100097.66;;;14.92;71.99
48517;BME280;34310;51.904;4.256;2022-11-18T09:33:41;100104.69;;;14.94;72.10
48517;BME280;34310;51.904;4.256;2022-11-18T09:36:18;100100.38;;;14.95;72.05
48517;BME280;34310;51.904;4.256;2022-11-18T09:38:45;100116.97;;;14.98;72.03
48517;BME280;34310;51.904;4.256;2022-11-18T09:41:47;100113.56;;;14.99;72.10
48517;BME280;34310;51.904;4.256;2022-11-18T09:44:27;100111.00;;;15.01;72.34
48517;BME280;34310;51.904;4.256;2022-11-18T09:49:35;100129.44;;;15.05;72.04
48517;BME280;34310;51.904;4.256;2022-11-18T09:52:27;100126.00;;;15.06;71.91
48517;BME280;34310;51.904;4.256;2022-11-18T09:55:07;100129.56;;;15.08;72.09
48517;BME280;34310;51.904;4.256;2022-11-18T09:57:48;100143.56;;;15.12;72.10
48517;BME280;34310;51.904;4.256;2022-11-18T10:05:26;100156.75;;;15.16;71.78
48517;BME280;34310;51.904;4.256;2022-11-18T10:08:19;100155.09;;;15.18;71.89
48517;BME280;34310;51.904;4.256;2022-11-18T10:11:16;100162.97;;;15.20;71.82
48517;BME280;34310;51.904;4.256;2022-11-18T10:22:56;100167.41;;;15.23;71.73
48517;BME280;34310;51.904;4.256;2022-11-18T10:25:25;100169.22;;;15.25;71.82
48517;BME280;34310;51.904;4.256;2022-11-18T10:27:52;100177.09;;;15.27;71.64
48517;BME280;34310;51.904;4.256;2022-11-18T10:30:24;100172.78;;;15.27;71.68
48517;BME280;34310;51.904;4.256;2022-11-18T10:32:56;100173.66;;;15.28;71.78
48517;BME280;34310;51.904;4.256;2022-11-18T10:35:44;100181.53;;;15.29;71.69
48517;BME280;34310;51.904;4.256;2022-11-18T10:41:00;100182.56;;;15.33;71.50
48517;BME280;34310;51.904;4.256;2022-11-18T10:43:48;100187.84;;;15.34;71.50
48517;BME280;34310;51.904;4.256;2022-11-18T10:46:33;100187.00;;;15.35;71.38
48517;BME280;34310;51.904;4.256;2022-11-18T10:49:11;100194.00;;;15.36;71.48
48517;BME280;34310;51.904;4.256;2022-11-18T10:51:45;100193.94;;;15.35;71.52
48517;BME280;34310;51.904;4.256;2022-11-18T10:54:21;100192.97;;;15.33;71.34
48517;BME280;34310;51.904;4.256;2022-11-18T10:57:11;100187.63;;;15.30;71.23
48517;BME280;34310;51.904;4.256;2022-11-18T10:59:51;100185.91;;;15.30;71.14
48517;BME280;34310;51.904;4.256;2022-11-18T11:02:32;100189.47;;;15.32;71.26
48517;BME280;34310;51.904;4.256;2022-11-18T11:05:15;100185.06;;;15.31;71.41
48517;BME280;34310;51.904;4.256;2022-11-18T11:07:45;100192.06;;;15.32;71.39
48517;BME280;34310;51.904;4.256;2022-11-18T11:10:57;100199.81;;;15.31;71.43
48517;BME280;34310;51.904;4.256;2022-11-18T11:13:27;100200.63;;;15.30;71.50
48517;BME280;34310;51.904;4.256;2022-11-18T11:16:00;100209.31;;;15.30;71.24
48517;BME280;34310;51.904;4.256;2022-11-18T11:18:33;100202.41;;;15.31;71.49
48517;BME280;34310;51.904;4.256;2022-11-18T11:21:18;100204.13;;;15.30;71.56
48517;BME280;34310;51.904;4.256;2022-11-18T11:23:46;100208.50;;;15.31;71.56
48517;BME280;34310;51.904;4.256;2022-11-18T11:35:00;100219.78;;;15.32;71.82
48517;BME280;34310;51.904;4.256;2022-11-18T11:52:52;100231.06;;;15.32;71.97
48517;BME280;34310;51.904;4.256;2022-11-18T12:00:17;100239.69;;;15.31;71.77
48517;BME280;34310;51.904;4.256;2022-11-18T12:03:13;100236.28;;;15.32;71.96
48517;BME280;34310;51.904;4.256;2022-11-18T12:05:44;100238.09;;;15.33;71.73
48517;BME280;34310;51.904;4.256;2022-11-18T12:08:13;100246.97;;;15.38;71.89
48517;BME280;34310;51.904;4.256;2022-11-18T12:10:47;100246.25;;;15.42;71.75
48517;BME280;34310;51.904;4.256;2022-11-18T12:16:30;100235.22;;;15.48;71.24
48517;BME280;34310;51.904;4.256;2022-11-18T12:19:06;100232.78;;;15.53;71.37
48517;BME280;34310;51.904;4.256;2022-11-18T12:29:43;100238.16;;;15.76;71.45
48517;BME280;34310;51.904;4.256;2022-11-18T12:32:30;100249.69;;;15.83;71.22
48517;BME280;34310;51.904;4.256;2022-11-18T12:40:32;100245.16;;;16.00;70.91
48517;BME280;34310;51.904;4.256;2022-11-18T12:43:01;100251.38;;;16.03;70.79
48517;BME280;34310;51.904;4.256;2022-11-18T12:45:49;100254.16;;;16.08;70.66
48517;BME280;34310;51.904;4.256;2022-11-18T12:50:58;100254.44;;;16.16;70.51
48517;BME280;34310;51.904;4.256;2022-11-18T12:53:39;100259.94;;;16.22;70.36
48517;BME280;34310;51.904;4.256;2022-11-18T12:56:28;100268.03;;;16.29;70.38
48517;BME280;34310;51.904;4.256;2022-11-18T12:59:00;100267.31;;;16.33;70.18
48517;BME280;34310;51.904;4.256;2022-11-18T13:01:32;100269.25;;;16.39;70.05
48517;BME280;34310;51.904;4.256;2022-11-18T13:04:11;100271.16;;;16.43;70.10
48517;BME280;34310;51.904;4.256;2022-11-18T13:06:41;100275.66;;;16.47;69.90
48517;BME280;34310;51.904;4.256;2022-11-18T13:09:23;100279.28;;;16.51;70.13
48517;BME280;34310;51.904;4.256;2022-11-18T13:12:03;100278.56;;;16.55;69.73
48517;BME280;34310;51.904;4.256;2022-11-18T13:14:39;100284.88;;;16.61;69.63
48517;BME280;34310;51.904;4.256;2022-11-18T13:17:32;100284.16;;;16.65;69.58
48517;BME280;34310;51.904;4.256;2022-11-18T13:20:32;100288.69;;;16.69;69.60
48517;BME280;34310;51.904;4.256;2022-11-18T13:26:05;100288.84;;;16.74;69.54
48517;BME280;34310;51.904;4.256;2022-11-18T13:31:58;100296.88;;;16.79;69.52
48517;BME280;34310;51.904;4.256;2022-11-18T13:34:30;100299.66;;;16.83;70.14
48517;BME280;34310;51.904;4.256;2022-11-18T13:36:58;100291.00;;;16.84;69.15
48517;BME280;34310;51.904;4.256;2022-11-18T13:39:29;100288.44;;;16.86;68.86
48517;BME280;34310;51.904;4.256;2022-11-18T13:42:05;100294.59;;;16.88;68.61
48517;BME280;34310;51.904;4.256;2022-11-18T13:44:35;100299.88;;;16.89;68.26
48517;BME280;34310;51.904;4.256;2022-11-18T13:47:20;100307.75;;;16.91;68.34
48517;BME280;34310;51.904;4.256;2022-11-18T13:52:30;100316.63;;;16.96;68.12
48517;BME280;34310;51.904;4.256;2022-11-18T13:55:04;100307.19;;;16.99;68.29
48517;BME280;34310;51.904;4.256;2022-11-18T13:57:34;100312.50;;;17.02;68.38
48517;BME280;34310;51.904;4.256;2022-11-18T14:00:06;100304.75;;;17.04;68.00
48517;BME280;34310;51.904;4.256;2022-11-18T14:02:39;100311.72;;;17.05;68.02
48517;BME280;34310;51.904;4.256;2022-11-18T14:05:17;100319.56;;;17.05;67.91
48517;BME280;34310;51.904;4.256;2022-11-18T14:08:03;100312.72;;;17.07;68.01
48517;BME280;34310;51.904;4.256;2022-11-18T14:10:50;100316.25;;;17.09;67.81
48517;BME280;34310;51.904;4.256;2022-11-18T14:13:24;100317.25;;;17.13;68.82
48517;BME280;34310;51.904;4.256;2022-11-18T14:16:03;100317.34;;;17.16;68.23
48517;BME280;34310;51.904;4.256;2022-11-18T14:18:50;100321.78;;;17.18;70.08
48517;BME280;34310;51.904;4.256;2022-11-18T14:21:34;100319.19;;;17.18;68.45
48517;BME280;34310;51.904;4.256;2022-11-18T14:24:04;100327.06;;;17.20;69.01
48517;BME280;34310;51.904;4.256;2022-11-18T14:26:35;100331.44;;;17.21;68.99
48517;BME280;34310;51.904;4.256;2022-11-18T14:29:19;100338.50;;;17.23;69.11
48517;BME280;34310;51.904;4.256;2022-11-18T14:32:13;100344.69;;;17.27;68.28
48517;BME280;34310;51.904;4.256;2022-11-18T14:34:41;100352.53;;;17.27;68.19
48517;BME280;34310;51.904;4.256;2022-11-18T14:37:12;100347.38;;;17.28;69.23
48517;BME280;34310;51.904;4.256;2022-11-18T14:39:40;100346.47;;;17.28;68.03
48517;BME280;34310;51.904;4.256;2022-11-18T14:42:12;100356.09;;;17.29;67.84
48517;BME280;34310;51.904;4.256;2022-11-18T14:44:39;100363.06;;;17.30;68.51
48517;BME280;34310;51.904;4.256;2022-11-18T14:47:21;100359.69;;;17.32;68.86
48517;BME280;34310;51.904;4.256;2022-11-18T14:49:50;100363.25;;;17.34;69.13
48517;BME280;34310;51.904;4.256;2022-11-18T14:52:18;100364.22;;;17.37;69.06
48517;BME280;34310;51.904;4.256;2022-11-18T14:54:45;100362.44;;;17.36;67.76
48517;BME280;34310;51.904;4.256;2022-11-18T14:57:16;100363.38;;;17.38;69.83
48517;BME280;34310;51.904;4.256;2022-11-18T14:59:45;100362.50;;;17.37;68.07
48517;BME280;34310;51.904;4.256;2022-11-18T15:02:14;100368.66;;;17.39;69.10
48517;BME280;34310;51.904;4.256;2022-11-18T15:04:42;100367.81;;;17.40;67.43
48517;BME280;34310;51.904;4.256;2022-11-18T15:07:14;100368.75;;;17.42;68.88
48517;BME280;34310;51.904;4.256;2022-11-18T15:09:49;100374.91;;;17.44;67.53